Time;durP1;ratioP1;P1;durP2;ratioP2;P2;SDS_P1;SDS_P2;PMS_P1;PMS_P2;Temp;Humidity;BMP_temperature;BMP_pressure;BME280_temperature;BME280_humidity;BME280_pressure;Samples;Min_cycle;Max_cycle;Signal;HPM_P1;HPM_P2
2022/05/16 00:02:19;;;;;;;9.80;2.80;;;;;;;19.88;43.76;101364.72;5078825;28;20059;-52
2022/05/16 00:04:48;;;;;;;11.60;3.00;;;;;;;19.82;44.08;101368.22;5077289;28;20110;-51
2022/05/16 00:07:13;;;;;;;12.23;3.15;;;;;;;19.80;44.08;101356.91;5074346;28;20112;-51
2022/05/16 00:09:39;;;;;;;8.20;3.13;;;;;;;19.75;43.92;101361.28;5077062;28;20135;-47
2022/05/16 00:12:05;;;;;;;11.57;3.03;;;;;;;19.71;44.54;101356.91;5074700;28;20040;-47
2022/05/16 00:14:32;;;;;;;11.38;2.85;;;;;;;19.71;44.47;101354.31;5077636;28;20061;-51
2022/05/16 00:16:57;;;;;;;12.68;3.55;;;;;;;19.73;44.41;101358.69;5075965;28;20030;-48
2022/05/16 00:19:23;;;;;;;10.02;3.08;;;;;;;19.70;44.41;101357.81;5080683;28;20024;-47
2022/05/16 00:21:48;;;;;;;10.75;3.13;;;;;;;19.70;44.48;101361.28;5076472;28;20055;-49
2022/05/16 00:24:13;;;;;;;13.43;3.50;;;;;;;19.62;44.47;101346.53;5079388;28;20483;-48
2022/05/16 00:26:39;;;;;;;7.80;2.97;;;;;;;19.59;44.97;101343.91;5078486;28;20024;-47
2022/05/16 00:29:05;;;;;;;10.45;3.40;;;;;;;19.58;44.57;101337.81;5079483;28;20028;-49
2022/05/16 00:31:31;;;;;;;10.13;3.10;;;;;;;19.48;45.20;101344.75;5075237;28;20031;-51
2022/05/16 00:33:57;;;;;;;11.23;3.17;;;;;;;19.51;45.19;101342.13;5077067;28;20489;-51
2022/05/16 00:36:22;;;;;;;12.30;3.13;;;;;;;19.49;45.22;101343.88;5076580;28;20070;-51
2022/05/16 00:38:50;;;;;;;9.48;3.60;;;;;;;19.48;45.29;101342.16;5080446;28;20036;-50
2022/05/16 00:41:16;;;;;;;10.05;3.38;;;;;;;19.51;44.96;101338.66;5077824;28;20115;-51
2022/05/16 00:43:47;;;;;;;10.40;3.20;;;;;;;19.45;45.15;101336.94;5073742;28;20127;-51
2022/05/16 00:46:16;;;;;;;14.85;3.42;;;;;;;19.47;45.04;101339.53;5075470;28;20387;-50
2022/05/16 00:48:41;;;;;;;12.20;3.35;;;;;;;19.47;45.40;101335.19;5078698;28;20031;-49
2022/05/16 00:51:12;;;;;;;11.88;3.47;;;;;;;19.43;45.62;101340.41;5073172;28;20050;-51
2022/05/16 00:53:38;;;;;;;11.52;3.13;;;;;;;19.43;45.35;101335.22;5077010;28;20024;-51
2022/05/16 00:56:05;;;;;;;12.18;3.28;;;;;;;19.40;45.95;101340.41;5076468;28;20401;-49
2022/05/16 00:58:30;;;;;;;10.20;3.15;;;;;;;19.39;45.84;101344.75;5075607;28;20055;-46
2022/05/16 01:00:56;;;;;;;11.40;3.55;;;;;;;19.37;45.82;101340.44;5079875;28;20105;-49
2022/05/16 01:06:07;;;;;;;10.82;3.42;;;;;;;19.37;45.78;101327.38;5077820;28;20078;-47
2022/05/16 01:08:37;;;;;;;11.52;3.50;;;;;;;19.34;46.24;101323.03;5077037;28;20035;-49
2022/05/16 01:11:07;;;;;;;14.82;3.60;;;;;;;19.32;46.51;101327.38;5078621;28;20040;-47
2022/05/16 01:13:33;;;;;;;15.25;3.85;;;;;;;19.32;46.33;101319.56;5076679;28;20027;-50
2022/05/16 01:16:00;;;;;;;12.07;3.75;;;;;;;19.31;45.94;101323.03;5077085;28;20050;-52
2022/05/16 01:18:26;;;;;;;11.68;3.65;;;;;;;19.32;46.23;101319.56;5072729;28;20045;-50
2022/05/16 01:21:09;;;;;;;10.93;4.20;;;;;;;19.28;46.12;101318.69;5076444;28;20028;-47
2022/05/16 01:24:07;;;;;;;11.35;3.65;;;;;;;19.34;45.81;101322.16;5075768;28;20060;-51
2022/05/16 01:26:34;;;;;;;11.75;3.67;;;;;;;19.24;46.16;101327.41;5072572;28;20146;-47
2022/05/16 01:29:00;;;;;;;11.30;3.53;;;;;;;19.24;46.34;101323.91;5075103;28;20480;-46
2022/05/16 01:31:25;;;;;;;10.57;4.00;;;;;;;19.18;46.49;101316.09;5074994;28;20128;-50
2022/05/16 01:33:50;;;;;;;9.38;3.70;;;;;;;19.20;46.37;101324.78;5075529;28;20093;-52
2022/05/16 01:36:16;;;;;;;8.07;3.83;;;;;;;19.14;46.61;101328.25;5076544;28;20101;-50
2022/05/16 01:38:42;;;;;;;11.95;3.47;;;;;;;19.17;46.79;101330.88;5076592;28;21346;-48
2022/05/16 01:41:16;;;;;;;10.10;3.67;;;;;;;19.17;46.43;101325.66;5074972;28;20024;-46
2022/05/16 01:43:45;;;;;;;7.93;3.08;;;;;;;19.12;46.62;101316.97;5077501;28;20747;-52
2022/05/16 01:46:14;;;;;;;10.07;3.30;;;;;;;19.15;46.60;101313.47;5075702;28;20020;-50
2022/05/16 01:48:39;;;;;;;10.95;3.72;;;;;;;19.08;47.00;101303.94;5074035;28;20032;-48
2022/05/16 01:51:09;;;;;;;9.45;3.45;;;;;;;19.03;47.35;101311.72;5070711;28;20718;-48
2022/05/16 01:53:35;;;;;;;10.18;3.55;;;;;;;19.07;47.25;101310.00;5077852;28;20039;-49
2022/05/16 01:56:01;;;;;;;12.63;4.13;;;;;;;19.03;47.59;101307.38;5079361;28;20433;-52
2022/05/16 01:58:26;;;;;;;10.63;3.63;;;;;;;18.98;47.21;101303.03;5080848;28;20035;-48
2022/05/16 02:00:53;;;;;;;8.75;3.70;;;;;;;18.99;47.50;101299.59;5078134;28;20416;-48
2022/05/16 02:03:19;;;;;;;10.15;3.55;;;;;;;18.96;47.29;101299.56;5078342;28;20044;-51
2022/05/16 02:05:45;;;;;;;9.95;3.85;;;;;;;18.92;47.53;101287.41;5081684;28;20846;-49
2022/05/16 02:08:11;;;;;;;9.95;4.00;;;;;;;18.85;47.72;101296.09;5080577;28;20110;-49
2022/05/16 02:10:37;;;;;;;11.95;3.67;;;;;;;18.88;47.77;101290.91;5080111;28;20035;-49
2022/05/16 02:13:03;;;;;;;10.43;3.83;;;;;;;18.85;48.10;101293.47;5080461;28;20032;-51
2022/05/16 02:15:31;;;;;;;13.18;4.10;;;;;;;18.87;47.90;101291.75;5076876;28;20040;-48
2022/05/16 02:17:57;;;;;;;10.23;3.75;;;;;;;18.81;48.36;101295.25;5075805;28;20154;-49
2022/05/16 02:20:24;;;;;;;9.13;3.63;;;;;;;18.75;48.54;101293.50;5079011;28;20055;-46
2022/05/16 02:25:39;;;;;;;9.88;3.55;;;;;;;18.65;48.96;101289.09;5079148;28;20515;-47
2022/05/16 02:28:05;;;;;;;9.98;3.38;;;;;;;18.64;49.02;101286.50;5082290;28;20046;-49
2022/05/16 02:30:31;;;;;;;11.52;4.15;;;;;;;18.66;48.72;101274.31;5078986;28;20522;-50
2022/05/16 02:32:57;;;;;;;12.02;3.53;;;;;;;18.67;48.72;101273.50;5081140;28;20020;-48
2022/05/16 02:35:23;;;;;;;10.90;4.03;;;;;;;18.61;49.04;101274.31;5078171;28;20499;-45
2022/05/16 02:37:49;;;;;;;12.57;4.13;;;;;;;18.59;49.21;101265.63;5080677;28;20027;-51
2022/05/16 02:40:14;;;;;;;10.45;4.13;;;;;;;18.55;49.15;101270.84;5080066;28;20411;-46
2022/05/16 02:42:40;;;;;;;8.35;4.32;;;;;;;18.56;49.10;101270.81;5079396;28;20036;-51
2022/05/16 02:45:06;;;;;;;9.65;3.90;;;;;;;18.52;49.44;101263.91;5080429;28;20024;-50
2022/05/16 02:47:32;;;;;;;10.05;3.80;;;;;;;18.56;49.23;101270.81;5079295;28;20122;-46
2022/05/16 02:49:57;;;;;;;11.55;3.80;;;;;;;18.52;49.46;101265.63;5078130;28;20139;-51
2022/05/16 02:52:22;;;;;;;10.35;4.25;;;;;;;18.47;49.76;101263.00;5078667;28;20028;-50
2022/05/16 02:54:48;;;;;;;7.65;3.70;;;;;;;18.45;49.76;101255.22;5080426;28;20111;-46
2022/05/16 02:57:13;;;;;;;12.43;4.40;;;;;;;18.43;49.90;101250.84;5074898;28;20044;-49
2022/05/16 02:59:39;;;;;;;14.30;4.13;;;;;;;18.38;50.14;101255.16;5079249;28;20036;-48
2022/05/16 03:02:08;;;;;;;11.20;3.97;;;;;;;18.36;50.46;101249.09;5076924;28;20673;-47
2022/05/16 03:04:34;;;;;;;13.38;4.38;;;;;;;18.32;50.34;101243.03;5077480;28;20700;-47
2022/05/16 03:07:00;;;;;;;8.88;3.80;;;;;;;18.31;50.39;101245.59;5079662;28;20036;-51
2022/05/16 03:09:27;;;;;;;11.95;4.28;;;;;;;18.28;50.75;101238.69;5079814;28;20040;-46
2022/05/16 03:11:52;;;;;;;11.07;4.10;;;;;;;18.28;50.66;101238.69;5079108;28;20027;-51
2022/05/16 03:14:18;;;;;;;7.60;3.65;;;;;;;18.26;50.88;101237.81;5081337;28;20065;-49
2022/05/16 03:16:45;;;;;;;6.50;3.83;;;;;;;18.22;50.89;101229.13;5080005;28;20422;-51
2022/05/16 03:19:10;;;;;;;6.90;3.88;;;;;;;18.20;51.33;101227.34;5078018;28;20036;-45
2022/05/16 03:21:36;;;;;;;7.40;4.03;;;;;;;18.19;51.12;101225.63;5077572;28;20583;-50
2022/05/16 03:24:01;;;;;;;7.57;4.05;;;;;;;18.22;51.21;101229.13;5079686;28;20484;-49
2022/05/16 03:26:27;;;;;;;7.88;3.78;;;;;;;18.15;51.31;101229.97;5077711;28;20032;-49
2022/05/16 03:28:52;;;;;;;8.30;3.20;;;;;;;18.20;51.36;101241.28;5082876;28;20059;-51
2022/05/16 03:31:18;;;;;;;9.30;3.90;;;;;;;18.15;51.44;101239.50;5078239;28;20143;-49
2022/05/16 03:33:44;;;;;;;12.60;4.07;;;;;;;18.10;51.66;101236.88;5076727;28;20123;-51
2022/05/16 03:36:10;;;;;;;9.88;3.78;;;;;;;18.11;51.71;101242.97;5075712;28;20086;-51
2022/05/16 03:41:20;;;;;;;11.93;4.55;;;;;;;18.04;51.97;101238.59;5078859;28;20063;-50
2022/05/16 03:43:46;;;;;;;12.32;4.30;;;;;;;18.00;52.01;101237.72;5077132;28;20042;-48
2022/05/16 03:46:12;;;;;;;12.35;4.30;;;;;;;17.99;51.94;101238.59;5075427;28;20430;-47
2022/05/16 03:48:38;;;;;;;10.43;4.20;;;;;;;17.95;52.40;101234.22;5075328;28;20028;-49
2022/05/16 03:51:05;;;;;;;11.02;4.57;;;;;;;17.89;52.57;101242.88;5077034;28;20399;-48
2022/05/16 03:53:31;;;;;;;12.32;4.18;;;;;;;17.85;52.65;101238.53;5079975;28;20035;-51
2022/05/16 03:55:57;;;;;;;13.18;4.80;;;;;;;17.86;52.78;101231.59;5077955;28;20041;-46
2022/05/16 03:58:22;;;;;;;12.90;4.90;;;;;;;17.82;53.15;101235.03;5076099;28;20103;-48
2022/05/16 04:00:48;;;;;;;13.75;4.45;;;;;;;17.82;52.91;101235.03;5078036;28;20035;-48
2022/05/16 04:03:14;;;;;;;8.52;3.75;;;;;;;17.74;53.41;101241.94;5079877;28;20024;-48
2022/05/16 04:05:40;;;;;;;9.60;4.20;;;;;;;17.73;53.21;101233.28;5079481;28;21099;-51
2022/05/16 04:08:06;;;;;;;11.30;4.97;;;;;;;17.74;53.40;101231.53;5077778;28;20040;-51
2022/05/16 04:10:31;;;;;;;8.73;4.40;;;;;;;17.68;53.63;101238.41;5075482;28;20034;-47
2022/05/16 04:12:57;;;;;;;8.23;4.40;;;;;;;17.72;53.65;101231.56;5074405;28;20031;-52
2022/05/16 04:15:25;;;;;;;9.45;4.30;;;;;;;17.65;53.65;101232.31;5076178;28;20120;-51
2022/05/16 04:17:51;;;;;;;9.00;4.10;;;;;;;17.61;53.94;101241.84;5076836;28;20116;-47
2022/05/16 04:20:17;;;;;;;12.50;4.25;;;;;;;17.70;53.72;101231.47;5075672;28;20032;-47
2022/05/16 04:22:43;;;;;;;9.73;4.43;;;;;;;17.66;54.00;101232.34;5077436;28;20058;-49
2022/05/16 04:25:12;;;;;;;10.35;4.43;;;;;;;17.72;53.96;101241.94;5076710;28;20052;-51
2022/05/16 04:27:38;;;;;;;8.75;4.13;;;;;;;17.69;54.25;101244.50;5077253;28;20067;-47
2022/05/16 04:30:05;;;;;;;12.00;4.28;;;;;;;17.70;54.05;101246.22;5078426;28;20498;-50
2022/05/16 04:32:31;;;;;;;10.00;4.35;;;;;;;17.67;54.36;101248.81;5073005;28;20536;-46
2022/05/16 04:34:56;;;;;;;10.13;4.30;;;;;;;17.68;54.67;101241.03;5072905;28;20031;-50
2022/05/16 04:37:22;;;;;;;12.50;4.35;;;;;;;17.63;54.81;101245.31;5069111;28;20048;-47
2022/05/16 04:39:47;;;;;;;7.60;4.47;;;;;;;17.66;54.73;101247.09;5074511;28;20040;-48
2022/05/16 04:42:46;;;;;;;8.88;4.63;;;;;;;17.69;54.68;101240.16;5074636;28;20391;-46
2022/05/16 04:45:05;;;;;;;9.20;4.97;;;;;;;17.66;54.92;101245.34;5068022;28;20044;-49
2022/05/16 04:47:30;;;;;;;10.02;4.20;;;;;;;17.72;54.77;101246.28;5076549;28;20032;-49
2022/05/16 04:49:56;;;;;;;10.43;4.65;;;;;;;17.75;54.57;101254.09;5067724;28;20109;-50
2022/05/16 04:52:21;;;;;;;13.05;5.13;;;;;;;17.75;55.03;101248.88;5081859;28;20028;-50
2022/05/16 04:54:48;;;;;;;10.07;5.10;;;;;;;17.79;54.97;101255.84;5079251;28;20081;-49
2022/05/16 04:57:14;;;;;;;8.35;5.13;;;;;;;17.77;54.61;101250.63;5075910;28;20496;-47
2022/05/16 04:59:39;;;;;;;10.40;5.35;;;;;;;17.85;54.63;101255.88;5071860;28;20032;-46
2022/05/16 05:02:04;;;;;;;11.27;5.57;;;;;;;17.78;55.19;101256.72;5069198;28;20032;-49
2022/05/16 05:04:30;;;;;;;13.23;5.55;;;;;;;17.81;55.58;101251.50;5065927;28;20454;-47
2022/05/16 05:06:55;;;;;;;13.65;5.32;;;;;;;17.81;55.30;101251.50;5058537;28;20435;-46
2022/05/16 05:09:20;;;;;;;11.45;5.28;;;;;;;17.86;55.66;101257.63;5059195;28;20028;-45
2022/05/16 05:14:33;;;;;;;15.23;5.85;;;;;;;17.99;55.20;101255.94;5057747;28;20051;-49
2022/05/16 05:17:07;;;;;;;12.83;6.03;;;;;;;18.06;54.92;101255.94;5057730;28;20016;-48
2022/05/16 05:19:34;;;;;;;11.57;5.53;;;;;;;18.19;54.65;101244.72;5067379;28;20125;-48
2022/05/16 05:22:00;;;;;;;11.45;6.00;;;;;;;18.27;54.72;101251.69;5077032;28;20085;-55
2022/05/16 05:24:26;;;;;;;10.05;6.00;;;;;;;18.35;54.17;101248.22;5079078;28;20115;-47
2022/05/16 05:26:51;;;;;;;12.85;6.25;;;;;;;18.45;53.89;101255.22;5078119;28;20024;-51
2022/05/16 05:29:18;;;;;;;11.20;6.13;;;;;;;18.59;54.05;101263.03;5082447;28;20042;-47
2022/05/16 05:31:44;;;;;;;13.43;6.70;;;;;;;18.60;54.38;101261.28;5080420;28;20028;-49
2022/05/16 05:34:11;;;;;;;13.73;6.68;;;;;;;18.69;54.11;101257.00;5078890;28;20034;-48
2022/05/16 05:36:38;;;;;;;12.90;6.18;;;;;;;18.69;54.11;101263.97;5081213;28;20021;-46
2022/05/16 05:39:04;;;;;;;10.23;6.28;;;;;;;18.67;54.39;101248.31;5081385;28;20769;-48
2022/05/16 05:41:30;;;;;;;12.70;6.50;;;;;;;18.71;54.53;101252.66;5081066;28;20032;-51
2022/05/16 05:43:56;;;;;;;9.60;6.32;;;;;;;18.71;54.63;101246.59;5084501;28;20409;-45
2022/05/16 05:46:21;;;;;;;14.50;6.38;;;;;;;18.74;54.83;101249.19;5080651;28;20021;-52
2022/05/16 05:48:47;;;;;;;12.82;6.50;;;;;;;18.79;54.99;101257.88;5085005;28;20028;-52
2022/05/16 05:51:14;;;;;;;15.10;6.35;;;;;;;18.90;54.77;101263.09;5085916;28;20071;-48
2022/05/16 05:53:41;;;;;;;15.18;6.57;;;;;;;18.94;54.88;101275.25;5083412;28;20110;-52
2022/05/16 05:56:07;;;;;;;13.55;5.97;;;;;;;19.05;54.85;101288.28;5083679;28;20036;-52
2022/05/16 05:58:34;;;;;;;14.15;5.55;;;;;;;19.06;54.33;101282.22;5078964;28;20036;-48
2022/05/16 06:01:03;;;;;;;10.55;4.82;;;;;;;19.06;54.02;101282.22;5085492;28;20116;-46
2022/05/16 06:03:30;;;;;;;10.95;4.82;;;;;;;19.04;54.45;101279.59;5081891;28;20492;-50
2022/05/16 06:05:56;;;;;;;11.00;4.80;;;;;;;19.07;54.79;101279.59;5085581;28;20454;-49
2022/05/16 06:08:21;;;;;;;10.80;4.75;;;;;;;19.07;54.41;101283.94;5080935;28;20030;-45
2022/05/16 06:10:49;;;;;;;11.77;4.57;;;;;;;19.05;54.39;101280.44;5083002;28;20432;-47
2022/05/16 06:13:15;;;;;;;10.95;4.82;;;;;;;19.05;54.06;101294.38;5077375;28;20059;-50
2022/05/16 06:15:40;;;;;;;12.60;5.10;;;;;;;19.05;54.00;101283.97;5081858;28;20028;-48
2022/05/16 06:18:06;;;;;;;12.40;4.65;;;;;;;19.12;54.41;101288.28;5080406;28;20052;-52
2022/05/16 06:20:31;;;;;;;11.73;4.53;;;;;;;19.15;54.19;101295.22;5084834;28;20141;-47
2022/05/16 06:22:57;;;;;;;11.60;4.82;;;;;;;19.19;54.51;101303.06;5085454;28;20114;-48
2022/05/16 06:25:32;;;;;;;8.55;4.75;;;;;;;19.21;54.60;101296.09;5082158;28;20423;-51
2022/05/16 06:28:05;;;;;;;9.25;4.70;;;;;;;19.26;54.76;101298.72;5077807;28;20102;-47
2022/05/16 06:30:32;;;;;;;11.23;4.70;;;;;;;19.28;54.97;101297.81;5077059;28;20045;-51
2022/05/16 06:32:57;;;;;;;7.68;4.88;;;;;;;19.31;54.94;101301.31;5084291;28;20024;-49
2022/05/16 06:35:24;;;;;;;14.60;5.18;;;;;;;19.32;56.09;101298.69;5076434;28;20078;-52
2022/05/16 06:37:49;;;;;;;12.15;5.00;;;;;;;19.42;54.73;101296.97;5077646;28;20469;-49
2022/05/16 06:40:15;;;;;;;13.15;4.95;;;;;;;19.48;54.43;101299.56;5078625;28;20055;-48
2022/05/16 06:42:41;;;;;;;10.65;4.88;;;;;;;19.65;54.41;101303.00;5080601;28;20064;-51
2022/05/16 06:45:08;;;;;;;13.93;4.93;;;;;;;19.90;54.59;101302.94;5079705;28;20113;-50
2022/05/16 06:47:33;;;;;;;11.60;4.55;;;;;;;20.15;53.94;101303.75;5081724;28;20032;-47
2022/05/16 06:49:59;;;;;;;11.73;4.70;;;;;;;20.22;53.39;101306.31;5084434;28;20060;-49
2022/05/16 06:52:24;;;;;;;13.65;4.07;;;;;;;20.44;53.24;101307.06;5082946;28;20503;-45
2022/05/16 06:54:51;;;;;;;9.48;4.10;;;;;;;20.49;53.34;101310.53;5082389;28;20036;-55
2022/05/16 06:57:16;;;;;;;10.10;3.58;;;;;;;20.58;53.67;101320.97;5082365;28;20043;-52
2022/05/16 06:59:42;;;;;;;13.35;3.90;;;;;;;20.56;53.66;101317.47;5085123;28;20362;-49
2022/05/16 07:02:07;;;;;;;8.27;3.97;;;;;;;20.51;54.29;101313.19;5080308;28;20730;-52
2022/05/16 07:04:36;;;;;;;8.85;3.47;;;;;;;20.52;53.90;101307.06;5079544;28;20028;-51
2022/05/16 07:07:04;;;;;;;12.15;3.53;;;;;;;20.51;54.39;101316.66;5081236;28;20031;-52
2022/05/16 07:09:30;;;;;;;11.05;3.08;;;;;;;20.52;54.08;101328.84;5085820;28;20392;-52
2022/05/16 07:11:55;;;;;;;8.65;3.08;;;;;;;20.57;53.94;101327.06;5078626;28;20039;-47
2022/05/16 07:14:20;;;;;;;9.50;3.20;;;;;;;20.51;54.00;101323.63;5079573;28;20433;-52
2022/05/16 07:16:46;;;;;;;9.63;3.08;;;;;;;20.55;54.23;101334.03;5078229;28;20519;-49
2022/05/16 07:19:12;;;;;;;11.38;3.15;;;;;;;20.56;54.07;101342.72;5076836;28;20059;-51
2022/05/16 07:21:38;;;;;;;9.07;2.95;;;;;;;20.55;54.31;101330.53;5077695;28;20055;-53
2022/05/16 07:24:04;;;;;;;9.63;3.08;;;;;;;20.57;53.72;101334.03;5079730;28;20499;-51
2022/05/16 07:29:13;;;;;;;9.80;3.83;;;;;;;20.62;54.39;101337.47;5080912;28;20134;-53
2022/05/16 07:31:38;;;;;;;13.40;3.38;;;;;;;20.61;53.25;101340.97;5078128;28;20915;-53
2022/05/16 07:34:04;;;;;;;9.65;3.03;;;;;;;20.62;53.68;101340.06;5077965;28;20029;-53
2022/05/16 07:36:29;;;;;;;12.02;3.17;;;;;;;20.60;54.04;101332.25;5076729;28;20024;-53
2022/05/16 07:38:55;;;;;;;9.75;3.13;;;;;;;20.62;53.95;101332.25;5077446;28;20066;-51
2022/05/16 07:41:20;;;;;;;9.32;3.15;;;;;;;20.66;54.29;101338.31;5078987;28;20036;-53
2022/05/16 07:43:45;;;;;;;8.38;3.28;;;;;;;20.68;54.60;101333.94;5077778;28;20055;-54
2022/05/16 07:46:11;;;;;;;10.52;3.15;;;;;;;20.72;54.12;101333.06;5078083;28;20082;-51
2022/05/16 07:48:37;;;;;;;8.18;3.45;;;;;;;20.74;54.63;101337.38;5082255;28;20477;-53
2022/05/16 07:51:03;;;;;;;8.63;3.60;;;;;;;20.75;54.49;101344.38;5079706;28;20032;-48
2022/05/16 07:53:28;;;;;;;8.93;3.20;;;;;;;20.81;54.67;101341.72;5077870;28;20875;-54
2022/05/16 07:55:55;;;;;;;9.63;3.30;;;;;;;20.81;54.80;101344.34;5076840;28;20062;-54
2022/05/16 07:58:22;;;;;;;7.28;3.10;;;;;;;20.84;54.38;101339.06;5084736;28;20059;-52
2022/05/16 08:00:49;;;;;;;9.70;3.55;;;;;;;20.89;54.73;101345.16;5083083;28;20035;-54
2022/05/16 08:03:16;;;;;;;12.30;3.30;;;;;;;20.93;55.44;101347.72;5077688;28;20038;-52
2022/05/16 08:05:42;;;;;;;12.35;3.15;;;;;;;20.98;56.06;101353.78;5079279;28;20032;-50
2022/05/16 08:10:53;;;;;;;7.93;3.30;;;;;;;21.04;56.38;101361.59;5084313;28;20047;-53
2022/05/16 08:13:18;;;;;;;12.18;3.40;;;;;;;21.04;55.55;101359.84;5080740;28;20067;-52
2022/05/16 08:15:44;;;;;;;11.95;3.45;;;;;;;21.07;55.28;101364.19;5081973;28;20403;-56
2022/05/16 08:18:12;;;;;;;6.20;3.10;;;;;;;21.07;55.72;101359.84;5076918;28;20051;-52
2022/05/16 08:20:39;;;;;;;10.48;3.15;;;;;;;21.21;56.18;101357.09;5081341;28;20028;-50
2022/05/16 08:23:05;;;;;;;9.65;2.90;;;;;;;21.42;56.87;101359.59;5082446;28;20028;-52
2022/05/16 08:25:31;;;;;;;8.70;2.90;;;;;;;21.65;56.75;101361.09;5082352;28;20042;-53
2022/05/16 08:27:56;;;;;;;7.28;3.10;;;;;;;21.79;55.71;101359.25;5074282;28;20020;-50
2022/05/16 08:30:23;;;;;;;10.65;2.80;;;;;;;21.85;55.49;101356.56;5081208;28;20097;-53
2022/05/16 08:32:50;;;;;;;9.35;2.67;;;;;;;21.99;55.06;101351.16;5080560;28;20024;-53
2022/05/16 08:35:17;;;;;;;5.75;2.53;;;;;;;22.15;54.76;101360.63;5080682;28;20077;-51
2022/05/16 08:41:05;;;;;;;7.88;2.40;;;;;;;22.43;54.68;101363.75;5077661;28;20127;-49
2022/05/16 08:43:51;;;;;;;6.95;2.28;;;;;;;22.57;54.22;101365.31;5080297;28;20475;-53
2022/05/16 08:46:33;;;;;;;9.32;2.65;;;;;;;22.83;54.00;101370.19;5079598;28;20499;-49
2022/05/16 08:49:08;;;;;;;9.07;2.33;;;;;;;22.94;53.36;101371.81;5083141;28;20028;-53
2022/05/16 08:51:35;;;;;;;9.18;2.42;;;;;;;23.09;53.67;101368.06;5080111;28;20384;-53
2022/05/16 08:54:10;;;;;;;7.93;2.00;;;;;;;23.28;52.97;101363.41;5083797;28;20068;-53
2022/05/16 08:56:39;;;;;;;5.50;2.10;;;;;;;23.41;52.59;101359.66;5077368;28;20040;-50
2022/05/16 08:59:09;;;;;;;7.43;2.00;;;;;;;23.59;51.70;101368.97;5082683;28;20024;-48
2022/05/16 09:01:51;;;;;;;7.03;2.10;;;;;;;23.73;51.85;101353.03;5081090;28;20020;-52
2022/05/16 09:04:23;;;;;;;7.85;1.90;;;;;;;23.90;50.83;101361.44;5078982;28;20084;-52
2022/05/16 09:07:05;;;;;;;7.35;2.42;;;;;;;23.99;51.25;101356.00;5081718;28;20034;-52
2022/05/16 09:10:19;;;;;;;5.70;2.00;;;;;;;24.10;50.15;101353.19;5076828;28;20114;-53
2022/05/16 09:12:50;;;;;;;8.68;2.17;;;;;;;24.27;49.41;101358.09;5069829;28;20056;-54
2022/05/16 09:15:41;;;;;;;7.93;1.85;;;;;;;24.32;48.39;101358.84;5081551;28;20412;-53
2022/05/16 09:18:28;;;;;;;5.70;1.70;;;;;;;24.43;48.24;101348.16;5078939;28;20467;-53
2022/05/16 09:21:07;;;;;;;5.88;2.08;;;;;;;24.51;47.44;101356.72;5076035;28;20039;-53
2022/05/16 09:23:42;;;;;;;3.67;1.70;;;;;;;24.61;47.63;101350.38;5082316;28;20128;-53
2022/05/16 09:26:29;;;;;;;5.32;1.90;;;;;;;24.83;46.72;101350.75;5081090;28;20399;-51
2022/05/16 09:28:59;;;;;;;7.75;2.03;;;;;;;24.86;46.24;101355.94;5077907;28;20115;-51
2022/05/16 09:31:28;;;;;;;7.30;1.80;;;;;;;24.86;46.56;101351.53;5078493;28;20044;-53
2022/05/16 09:33:57;;;;;;;4.68;1.88;;;;;;;24.98;47.07;101339.84;5081685;28;20035;-53
2022/05/16 09:36:45;;;;;;;5.90;2.00;;;;;;;25.07;46.86;101351.97;5077910;28;20028;-53
2022/05/16 09:39:16;;;;;;;5.05;1.90;;;;;;;25.26;46.28;101352.38;5079043;28;20043;-54
2022/05/16 09:41:48;;;;;;;6.45;2.17;;;;;;;25.31;46.06;101358.41;5082121;28;20042;-54
2022/05/16 09:44:27;;;;;;;6.80;2.05;;;;;;;25.39;45.99;101351.16;5083255;28;20115;-54
2022/05/16 09:47:12;;;;;;;6.68;2.28;;;;;;;25.52;46.55;101357.84;5081967;28;20016;-54
2022/05/16 09:49:38;;;;;;;6.93;1.80;;;;;;;25.65;45.56;101359.22;5074956;28;20032;-50
2022/05/16 09:52:03;;;;;;;4.90;2.00;;;;;;;25.71;45.81;101367.88;5079435;28;20035;-54
2022/05/16 09:54:36;;;;;;;9.25;2.20;;;;;;;25.83;45.54;101373.72;5078752;28;20033;-54
2022/05/16 09:57:07;;;;;;;3.97;2.13;;;;;;;25.93;44.42;101385.75;5076130;28;20051;-54
2022/05/16 09:59:38;;;;;;;7.25;2.13;;;;;;;26.04;44.40;101387.22;5082284;28;20036;-54
2022/05/16 10:02:21;;;;;;;6.75;2.00;;;;;;;26.10;43.63;101385.28;5078783;28;20036;-47
2022/05/16 10:04:51;;;;;;;5.35;2.10;;;;;;;26.25;43.98;101396.28;5078926;28;20032;-54
2022/05/16 10:07:21;;;;;;;9.75;2.00;;;;;;;26.31;44.56;101407.50;5078738;28;20062;-53
2022/05/16 10:09:50;;;;;;;6.00;2.38;;;;;;;26.17;43.75;101407.03;5075023;28;20035;-52
2022/05/16 10:12:19;;;;;;;7.72;1.95;;;;;;;26.07;43.79;101409.06;5076806;28;20092;-53
2022/05/16 10:14:46;;;;;;;10.02;2.30;;;;;;;25.99;44.05;101405.78;5074479;28;20107;-53
2022/05/16 10:17:34;;;;;;;5.90;2.58;;;;;;;25.90;45.03;101412.16;5077263;28;20395;-54
2022/05/16 10:20:07;;;;;;;7.32;2.30;;;;;;;25.83;45.37;101409.72;5084272;28;20492;-53
2022/05/16 10:22:33;;;;;;;6.05;2.33;;;;;;;25.75;45.28;101420.47;5080845;28;20055;-54
2022/05/16 10:24:59;;;;;;;9.30;2.38;;;;;;;25.68;45.60;101419.75;5080493;28;20502;-54
2022/05/16 10:27:32;;;;;;;6.88;2.70;;;;;;;25.58;45.96;101420.88;5082757;28;20031;-57
2022/05/16 10:30:03;;;;;;;6.50;2.92;;;;;;;25.53;46.32;101427.16;5079507;28;20086;-56
2022/05/16 10:35:39;;;;;;;11.55;2.63;;;;;;;25.34;47.64;101437.28;5020497;28;20124;-53
2022/05/16 10:38:34;;;;;;;9.77;2.42;;;;;;;25.31;48.55;101450.53;5068554;28;20736;-53
2022/05/16 10:41:02;;;;;;;16.55;2.90;;;;;;;25.14;49.86;101459.66;5078667;28;20063;-54
2022/05/16 10:43:52;;;;;;;12.73;2.90;;;;;;;25.09;49.14;101461.53;5081297;28;20028;-53
2022/05/16 10:46:24;;;;;;;8.90;2.80;;;;;;;24.96;50.30;101462.69;5079872;28;20639;-51
2022/05/16 10:48:58;;;;;;;12.15;2.50;;;;;;;24.88;50.36;101480.41;5079781;28;20152;-52
2022/05/16 10:51:23;;;;;;;10.77;2.75;;;;;;;24.75;50.59;101494.69;5078022;28;20115;-52
2022/05/16 10:54:20;;;;;;;9.85;3.17;;;;;;;24.81;51.85;101490.19;5082314;28;20564;-53
2022/05/16 10:57:13;;;;;;;11.15;3.00;;;;;;;24.69;53.17;101500.94;5077458;28;20404;-53
2022/05/16 10:59:38;;;;;;;5.90;2.85;;;;;;;24.67;53.20;101501.88;5075919;28;20028;-53
2022/05/16 11:02:18;;;;;;;10.20;3.10;;;;;;;24.72;52.26;101507.91;5079795;28;20396;-50
2022/05/16 11:05:10;;;;;;;9.63;3.17;;;;;;;24.81;51.60;101510.34;5079779;28;20977;-53
2022/05/16 11:08:15;;;;;;;7.22;2.97;;;;;;;25.12;51.51;101506.22;5077102;28;20438;-53
2022/05/16 11:11:12;;;;;;;6.50;3.42;;;;;;;25.14;51.02;101503.53;5078657;28;20039;-49
2022/05/16 11:14:05;;;;;;;8.43;3.40;;;;;;;25.05;50.81;101523.00;5075897;28;20123;-52
2022/05/16 11:16:36;;;;;;;9.02;3.90;;;;;;;25.07;51.23;101523.88;5083746;28;20517;-52
2022/05/16 11:19:45;;;;;;;13.60;3.45;;;;;;;25.08;51.27;101530.00;5081457;28;20380;-52
2022/05/16 11:22:15;;;;;;;8.82;3.70;;;;;;;24.79;52.14;101531.44;5078010;28;20107;-50
2022/05/16 11:24:44;;;;;;;8.52;3.00;;;;;;;24.64;54.42;101528.25;5080638;28;20114;-48
2022/05/16 11:27:30;;;;;;;14.60;4.50;;;;;;;24.62;54.64;101538.78;5076526;28;20034;-51
2022/05/16 11:30:20;;;;;;;12.32;4.10;;;;;;;24.38;56.42;101537.47;5075938;28;20046;-49
2022/05/16 11:33:03;;;;;;;6.57;3.75;;;;;;;24.14;57.47;101543.16;5078532;28;20037;-50
2022/05/16 11:35:39;;;;;;;11.20;4.05;;;;;;;24.05;57.89;101536.31;5075199;28;20126;-53
2022/05/16 11:38:10;;;;;;;14.32;4.68;;;;;;;23.98;57.71;101545.19;5075023;28;20428;-51
2022/05/16 11:40:44;;;;;;;17.63;5.10;;;;;;;23.98;57.85;101547.81;5082076;28;20471;-52
2022/05/16 11:43:28;;;;;;;10.10;4.60;;;;;;;23.88;57.70;101547.09;5078404;28;20078;-52
2022/05/16 11:46:16;;;;;;;13.00;4.90;;;;;;;23.76;58.66;101545.53;5081785;28;20050;-48
2022/05/16 11:49:07;;;;;;;9.57;4.95;;;;;;;23.74;58.90;101549.06;5073917;28;20025;-52
2022/05/16 11:52:00;;;;;;;11.93;5.22;;;;;;;23.67;59.57;101547.44;5076164;28;20055;-53
2022/05/16 11:54:46;;;;;;;12.15;5.43;;;;;;;23.54;60.56;101549.34;5078471;28;20174;-53
2022/05/16 12:03:05;;;;;;;10.85;5.35;;;;;;;23.72;60.71;101562.22;5074305;28;20391;-52